Time;durP1;ratioP1;P1;durP2;ratioP2;P2;SDS_P1;SDS_P2;PMS_P1;PMS_P2;Temp;Humidity;BMP_temperature;BMP_pressure;BME280_temperature;BME280_humidity;BME280_pressure;Samples;Min_cycle;Max_cycle;Signal;HPM_P1;HPM_P2
2021/08/04 00:01:56;;;;;;;3.45;1.25;;;23.30;96.70;;;;;;4905835;29;20074;-72
2021/08/04 00:04:25;;;;;;;5.18;0.80;;;23.20;96.70;;;;;;4907833;29;20048;-71
2021/08/04 00:06:54;;;;;;;3.35;1.20;;;23.10;96.70;;;;;;4904033;29;20148;-71
2021/08/04 00:09:23;;;;;;;3.72;1.23;;;23.20;96.70;;;;;;4912862;29;20119;-71
2021/08/04 00:12:32;;;;;;;4.10;0.90;;;23.10;96.70;;;;;;4908208;29;20075;-71
2021/08/04 00:15:03;;;;;;;2.92;1.02;;;23.20;96.70;;;;;;4911742;29;20051;-71
2021/08/04 00:17:32;;;;;;;1.98;1.00;;;23.20;96.70;;;;;;4904618;29;20152;-71
2021/08/04 00:20:00;;;;;;;3.90;1.25;;;23.20;96.70;;;;;;4918749;29;20044;-71
2021/08/04 00:22:28;;;;;;;2.90;1.13;;;23.10;96.70;;;;;;4905539;29;20056;-72
2021/08/04 00:24:56;;;;;;;4.78;1.70;;;23.00;96.70;;;;;;4910734;29;20062;-72
2021/08/04 00:27:27;;;;;;;3.63;1.23;;;23.10;96.70;;;;;;4910109;29;20044;-71
2021/08/04 00:29:56;;;;;;;7.45;1.60;;;23.10;96.70;;;;;;4925466;28;20462;-71
2021/08/04 00:32:26;;;;;;;2.38;1.10;;;23.00;96.70;;;;;;4906633;29;20048;-71
2021/08/04 00:34:56;;;;;;;2.67;1.30;;;22.90;96.70;;;;;;4907704;29;20099;-71
2021/08/04 00:37:27;;;;;;;2.40;1.10;;;22.90;96.70;;;;;;4892044;29;20240;-71
2021/08/04 00:39:56;;;;;;;3.00;0.90;;;23.00;96.70;;;;;;4923316;28;20131;-71
2021/08/04 00:42:26;;;;;;;6.03;1.55;;;22.90;96.70;;;;;;4918770;29;20047;-71
2021/08/04 00:44:55;;;;;;;3.67;1.10;;;22.90;96.70;;;;;;4923499;29;20370;-71
2021/08/04 00:47:25;;;;;;;2.72;1.30;;;22.90;96.70;;;;;;4923436;29;20042;-71
2021/08/04 00:49:54;;;;;;;3.40;1.20;;;22.90;96.70;;;;;;4909609;29;20044;-71
2021/08/04 00:52:22;;;;;;;3.47;1.50;;;22.90;96.70;;;;;;4907921;29;20404;-71
2021/08/04 00:54:50;;;;;;;3.53;1.10;;;22.80;96.70;;;;;;4907584;29;20111;-71
2021/08/04 00:57:37;;;;;;;4.10;1.20;;;22.80;96.70;;;;;;4921767;29;20058;-71
2021/08/04 01:00:06;;;;;;;;;;;22.80;96.70;;;;;;4914228;29;20040;-71
2021/08/04 01:02:57;;;;;;;3.55;1.35;;;22.70;96.70;;;;;;4906332;29;20141;-71
2021/08/04 01:05:32;;;;;;;3.53;1.00;;;22.70;96.70;;;;;;4914614;29;20072;-71
2021/08/04 01:08:07;;;;;;;3.63;1.30;;;22.60;96.70;;;;;;4924656;29;20080;-71
2021/08/04 01:10:40;;;;;;;3.50;1.33;;;22.50;96.70;;;;;;4910083;29;20040;-71
2021/08/04 01:13:13;;;;;;;5.10;1.33;;;22.60;96.70;;;;;;4925942;29;20355;-71
2021/08/04 01:15:46;;;;;;;4.20;1.67;;;22.50;96.70;;;;;;4938084;28;20052;-71
2021/08/04 01:18:22;;;;;;;2.13;1.25;;;22.40;96.70;;;;;;4908805;29;20264;-71
2021/08/04 01:20:51;;;;;;;3.10;1.27;;;22.50;96.70;;;;;;4916835;29;20067;-71
2021/08/04 01:23:47;;;;;;;4.28;1.25;;;22.40;96.70;;;;;;4919151;28;20045;-71
2021/08/04 01:26:28;;;;;;;3.60;1.00;;;22.40;96.70;;;;;;4923527;29;20104;-71
2021/08/04 01:29:01;;;;;;;3.28;0.98;;;22.40;96.70;;;;;;4922173;29;20096;-71
2021/08/04 01:31:32;;;;;;;3.53;1.10;;;22.50;96.70;;;;;;4907300;29;20048;-71
2021/08/04 01:34:20;;;;;;;2.78;0.90;;;22.40;96.70;;;;;;4918611;28;20053;-72
2021/08/04 01:36:49;;;;;;;3.45;1.40;;;22.30;96.70;;;;;;4908927;29;20120;-72
2021/08/04 01:39:20;;;;;;;2.95;1.23;;;22.30;96.70;;;;;;4934794;28;20052;-71
2021/08/04 01:41:51;;;;;;;2.33;1.13;;;22.20;96.70;;;;;;4892762;29;20145;-71
2021/08/04 01:44:20;;;;;;;4.78;1.58;;;22.20;96.70;;;;;;4905557;29;20047;-72
2021/08/04 01:46:50;;;;;;;2.83;1.10;;;22.30;96.70;;;;;;4909555;29;20083;-71
2021/08/04 01:49:22;;;;;;;3.13;1.20;;;22.20;96.70;;;;;;4907525;29;20051;-71
2021/08/04 01:51:51;;;;;;;2.30;1.23;;;22.30;96.70;;;;;;4923664;29;20064;-71
2021/08/04 01:54:20;;;;;;;4.63;1.23;;;22.20;96.70;;;;;;4904926;29;20712;-71
2021/08/04 01:56:52;;;;;;;4.47;1.30;;;22.10;96.70;;;;;;4910035;29;20036;-71
2021/08/04 01:59:54;;;;;;;2.13;0.93;;;22.00;96.70;;;;;;4918175;29;20051;-71
2021/08/04 02:02:23;;;;;;;2.53;1.17;;;22.00;96.70;;;;;;4905068;29;20043;-71
2021/08/04 02:05:17;;;;;;;4.53;1.15;;;22.10;96.70;;;;;;4922042;28;20040;-71
2021/08/04 02:07:59;;;;;;;4.00;1.17;;;22.20;96.70;;;;;;4917456;29;20048;-72
2021/08/04 02:10:39;;;;;;;3.83;1.27;;;22.10;96.70;;;;;;4909998;29;20451;-71
2021/08/04 02:13:20;;;;;;;4.90;1.38;;;21.90;96.70;;;;;;4906656;29;20396;-71
2021/08/04 02:16:12;;;;;;;2.92;1.15;;;21.90;96.70;;;;;;4924243;28;20523;-71
2021/08/04 02:18:46;;;;;;;5.63;1.20;;;22.00;96.70;;;;;;4919210;29;20519;-71
2021/08/04 02:21:18;;;;;;;7.57;1.42;;;22.00;96.70;;;;;;4906709;29;20048;-71
2021/08/04 02:23:49;;;;;;;5.78;1.20;;;21.90;96.70;;;;;;4908307;29;20052;-71
2021/08/04 02:26:22;;;;;;;5.05;1.50;;;22.00;96.70;;;;;;4904699;29;20499;-71
2021/08/04 02:28:57;;;;;;;3.58;1.08;;;22.00;96.70;;;;;;4922088;29;20060;-71
2021/08/04 02:31:27;;;;;;;4.72;1.15;;;21.90;96.70;;;;;;4906274;29;20107;-71
2021/08/04 02:33:59;;;;;;;2.63;1.50;;;21.90;96.70;;;;;;4908022;29;20142;-71
2021/08/04 02:36:28;;;;;;;1.48;0.88;;;21.90;96.70;;;;;;4920776;29;20052;-71
2021/08/04 02:39:01;;;;;;;3.88;1.20;;;22.00;96.70;;;;;;4908854;29;20052;-71
2021/08/04 02:41:32;;;;;;;7.45;2.08;;;22.00;96.70;;;;;;4893248;29;20056;-71
2021/08/04 02:44:03;;;;;;;2.33;1.00;;;22.00;96.70;;;;;;4906768;29;20617;-71
2021/08/04 02:46:32;;;;;;;2.47;1.05;;;21.90;96.70;;;;;;4922277;28;20570;-72
2021/08/04 02:49:00;;;;;;;5.35;1.15;;;21.90;96.70;;;;;;4908557;29;20051;-71
2021/08/04 02:51:31;;;;;;;3.28;1.20;;;22.00;96.70;;;;;;4900643;29;20056;-71
2021/08/04 02:54:21;;;;;;;2.10;1.15;;;21.90;96.70;;;;;;4923830;28;20052;-71
2021/08/04 02:56:49;;;;;;;2.00;1.17;;;21.90;96.70;;;;;;4907497;29;20056;-71
2021/08/04 02:59:43;;;;;;;3.60;1.25;;;21.90;96.70;;;;;;4907686;29;20387;-71
2021/08/04 03:02:11;;;;;;;2.80;1.20;;;21.60;96.70;;;;;;4916427;29;20123;-71
2021/08/04 03:04:40;;;;;;;4.65;1.20;;;21.30;96.70;;;;;;4890498;29;20547;-71
2021/08/04 03:07:08;;;;;;;3.10;1.33;;;21.20;96.70;;;;;;4922438;29;20048;-71
2021/08/04 03:09:37;;;;;;;2.58;1.17;;;21.10;96.70;;;;;;4906050;29;20045;-72
2021/08/04 03:12:06;;;;;;;3.78;0.93;;;21.10;96.70;;;;;;4907623;29;20040;-71
2021/08/04 03:14:34;;;;;;;3.08;1.33;;;21.10;96.70;;;;;;4920424;28;20055;-71
2021/08/04 03:17:05;;;;;;;4.35;1.02;;;21.10;96.70;;;;;;4908867;29;20048;-71
2021/08/04 03:19:33;;;;;;;2.35;1.40;;;21.10;96.70;;;;;;4903778;29;20402;-71
2021/08/04 03:22:02;;;;;;;4.22;1.40;;;21.00;96.70;;;;;;4914775;29;20055;-71
2021/08/04 03:24:30;;;;;;;2.95;1.00;;;21.10;96.70;;;;;;4907664;29;20423;-71
2021/08/04 03:26:59;;;;;;;3.55;1.00;;;21.20;96.70;;;;;;4921675;29;20071;-72
2021/08/04 03:29:52;;;;;;;4.00;1.30;;;21.30;96.70;;;;;;4906709;29;20044;-71
2021/08/04 03:32:23;;;;;;;4.97;1.05;;;21.40;96.70;;;;;;4905387;29;20047;-72
2021/08/04 03:35:10;;;;;;;2.35;1.20;;;21.40;96.70;;;;;;4905434;29;20177;-72
2021/08/04 03:37:38;;;;;;;;;;;21.50;96.70;;;;;;4897882;29;20048;-71
2021/08/04 03:40:07;;;;;;;2.88;1.08;;;21.60;96.70;;;;;;4905260;29;19927;-72
2021/08/04 03:42:35;;;;;;;4.25;1.40;;;21.70;96.70;;;;;;4904652;29;20067;-71
2021/08/04 03:45:04;;;;;;;4.43;1.35;;;21.70;96.70;;;;;;4904756;29;20036;-71
2021/08/04 03:47:34;;;;;;;4.75;1.33;;;21.80;96.70;;;;;;4906412;29;20048;-71
2021/08/04 03:50:03;;;;;;;4.43;1.20;;;21.80;96.70;;;;;;4915293;29;20060;-71
2021/08/04 03:52:33;;;;;;;3.75;1.40;;;21.70;96.70;;;;;;4906021;29;20072;-71
2021/08/04 03:55:03;;;;;;;1.55;1.10;;;21.70;96.70;;;;;;4906393;29;20605;-71
2021/08/04 03:57:32;;;;;;;4.45;1.23;;;21.60;96.70;;;;;;4906498;29;20036;-71
2021/08/04 04:00:09;;;;;;;4.15;1.30;;;21.50;96.70;;;;;;4920907;29;20507;-71
2021/08/04 04:02:53;;;;;;;1.60;1.25;;;21.50;96.70;;;;;;4906587;29;20048;-71
2021/08/04 04:05:39;;;;;;;2.00;0.90;;;21.50;96.70;;;;;;4913736;29;20056;-71
2021/08/04 04:08:14;;;;;;;4.50;1.13;;;21.40;96.70;;;;;;4906069;29;20138;-72
2021/08/04 04:10:44;;;;;;;3.55;1.25;;;21.40;96.70;;;;;;4902717;29;20485;-71
2021/08/04 04:13:13;;;;;;;3.88;1.40;;;21.30;96.70;;;;;;4918971;28;20058;-71
2021/08/04 04:15:44;;;;;;;2.78;1.17;;;21.20;96.70;;;;;;4908301;29;20051;-72
2021/08/04 04:18:14;;;;;;;3.17;1.05;;;21.20;96.70;;;;;;4916561;28;20045;-71
2021/08/04 04:20:44;;;;;;;3.13;1.02;;;21.30;96.70;;;;;;4899493;29;20595;-71
2021/08/04 04:23:12;;;;;;;1.40;0.80;;;21.30;96.70;;;;;;4904210;29;20032;-71
2021/08/04 04:25:40;;;;;;;4.63;1.20;;;21.20;96.70;;;;;;4914552;29;20044;-71
2021/08/04 04:28:09;;;;;;;2.63;1.05;;;21.20;96.70;;;;;;4920270;29;20046;-71
2021/08/04 04:30:38;;;;;;;2.28;1.48;;;21.20;96.70;;;;;;4935756;28;20091;-71
2021/08/04 04:33:07;;;;;;;4.20;1.00;;;21.30;96.70;;;;;;4903971;29;20060;-72
2021/08/04 04:35:37;;;;;;;2.20;0.80;;;21.30;96.70;;;;;;4905384;29;20059;-71
2021/08/04 04:38:05;;;;;;;4.82;1.27;;;21.20;96.70;;;;;;4920227;29;20050;-71
2021/08/04 04:40:34;;;;;;;2.80;1.02;;;21.10;96.70;;;;;;4905076;29;20075;-71
2021/08/04 04:43:02;;;;;;;2.53;1.13;;;21.10;96.70;;;;;;4904223;29;20473;-71
2021/08/04 04:45:30;;;;;;;3.17;1.00;;;20.90;96.70;;;;;;4919991;29;20570;-72
2021/08/04 04:47:59;;;;;;;3.78;1.17;;;20.80;96.70;;;;;;4908600;29;20035;-72
2021/08/04 04:50:27;;;;;;;5.10;1.05;;;20.80;96.70;;;;;;4903870;28;20684;-72
2021/08/04 04:52:57;;;;;;;3.83;1.48;;;20.80;96.70;;;;;;4907221;29;20403;-71
2021/08/04 04:55:26;;;;;;;3.58;1.05;;;20.80;96.70;;;;;;4906831;29;20044;-71
2021/08/04 04:57:54;;;;;;;6.82;1.52;;;20.80;96.70;;;;;;4910315;29;20051;-71
2021/08/04 05:00:22;;;;;;;5.18;1.48;;;20.90;96.70;;;;;;4906412;29;20604;-72
2021/08/04 05:02:51;;;;;;;3.33;1.25;;;20.90;96.70;;;;;;4918758;29;20059;-71
2021/08/04 05:05:20;;;;;;;4.35;1.30;;;21.10;96.70;;;;;;4908445;29;20530;-72
2021/08/04 05:07:49;;;;;;;2.67;1.38;;;21.20;96.70;;;;;;4908724;29;20143;-72
2021/08/04 05:10:19;;;;;;;3.78;1.10;;;21.20;96.70;;;;;;4909936;29;20040;-72
2021/08/04 05:12:47;;;;;;;7.00;1.48;;;21.20;96.70;;;;;;4909678;29;20040;-71
2021/08/04 05:15:15;;;;;;;3.35;1.20;;;21.30;96.70;;;;;;4905900;29;20127;-71
2021/08/04 05:17:44;;;;;;;3.10;1.42;;;21.30;96.70;;;;;;4909345;29;20067;-71
2021/08/04 05:20:13;;;;;;;4.32;1.95;;;21.50;96.70;;;;;;4908301;29;20163;-71
2021/08/04 05:22:42;;;;;;;3.00;1.40;;;21.50;96.70;;;;;;4910194;29;20082;-71
2021/08/04 05:25:12;;;;;;;6.40;2.00;;;21.60;96.70;;;;;;4908116;29;20056;-71
2021/08/04 05:27:42;;;;;;;4.32;1.50;;;21.70;96.70;;;;;;4913625;29;20048;-71
2021/08/04 05:30:12;;;;;;;3.65;1.70;;;21.80;96.70;;;;;;4921671;29;20063;-71
2021/08/04 05:32:41;;;;;;;5.57;1.85;;;21.70;96.70;;;;;;4909058;29;20052;-71
2021/08/04 05:35:10;;;;;;;4.63;1.80;;;21.70;96.70;;;;;;4909601;29;20040;-71
2021/08/04 05:37:39;;;;;;;4.40;2.42;;;21.70;96.70;;;;;;4912773;29;20059;-72
2021/08/04 05:40:08;;;;;;;3.63;2.30;;;21.80;96.70;;;;;;4907719;29;20410;-71
2021/08/04 05:42:37;;;;;;;4.75;2.55;;;21.90;96.70;;;;;;4907523;29;20909;-71
2021/08/04 05:45:09;;;;;;;4.07;2.60;;;22.10;96.70;;;;;;4909668;29;20036;-71
2021/08/04 05:47:37;;;;;;;6.72;2.92;;;22.00;96.70;;;;;;4916013;29;20063;-72
2021/08/04 05:50:06;;;;;;;6.45;2.20;;;22.10;96.70;;;;;;4909811;29;20136;-71
2021/08/04 05:52:35;;;;;;;2.60;1.65;;;22.10;96.70;;;;;;4908695;29;20063;-71
2021/08/04 05:55:05;;;;;;;3.80;1.30;;;22.20;96.70;;;;;;4908152;29;20048;-71
2021/08/04 05:57:34;;;;;;;3.38;1.40;;;22.10;96.70;;;;;;4892287;29;20072;-71
2021/08/04 06:00:03;;;;;;;2.17;0.95;;;22.00;96.70;;;;;;4908723;29;20170;-71
2021/08/04 06:02:34;;;;;;;3.00;0.98;;;22.10;96.70;;;;;;4908591;29;20318;-72
2021/08/04 06:05:03;;;;;;;3.08;1.58;;;22.00;96.70;;;;;;4908695;29;20051;-71
2021/08/04 06:07:32;;;;;;;3.58;1.00;;;21.90;96.70;;;;;;4905667;29;20495;-71
2021/08/04 06:10:01;;;;;;;3.88;1.10;;;22.00;96.70;;;;;;4910528;29;20044;-71
2021/08/04 06:12:29;;;;;;;2.55;1.17;;;22.00;96.70;;;;;;4908030;29;20048;-71
2021/08/04 06:14:57;;;;;;;3.85;1.15;;;22.00;96.70;;;;;;4908872;29;20044;-71
2021/08/04 06:17:26;;;;;;;6.43;1.02;;;22.10;96.70;;;;;;4908465;29;20422;-71
2021/08/04 06:19:56;;;;;;;2.38;0.90;;;22.30;96.70;;;;;;4907423;29;20469;-71
2021/08/04 06:22:25;;;;;;;4.75;1.40;;;22.40;96.70;;;;;;4908323;29;20054;-71
2021/08/04 06:24:53;;;;;;;3.70;1.17;;;22.30;96.70;;;;;;4908763;29;20043;-71
2021/08/04 06:27:22;;;;;;;5.55;1.08;;;22.30;96.70;;;;;;4906905;29;20140;-71
2021/08/04 06:29:50;;;;;;;4.63;1.63;;;22.30;96.70;;;;;;4907019;29;20333;-71
2021/08/04 06:32:19;;;;;;;2.40;1.40;;;22.40;96.70;;;;;;4908234;29;20040;-71
2021/08/04 06:34:48;;;;;;;3.60;1.42;;;22.60;96.70;;;;;;4938235;28;20044;-71
2021/08/04 06:37:18;;;;;;;1.83;0.90;;;22.60;96.70;;;;;;4908800;29;20526;-71
2021/08/04 06:39:46;;;;;;;4.18;1.45;;;22.60;96.70;;;;;;4907404;29;20059;-73
2021/08/04 06:42:19;;;;;;;4.82;1.70;;;22.60;96.70;;;;;;4910495;29;20051;-73
2021/08/04 06:44:47;;;;;;;6.03;1.42;;;22.70;96.70;;;;;;4908102;29;20127;-73
2021/08/04 06:47:16;;;;;;;2.63;1.55;;;22.70;96.70;;;;;;4922079;29;20431;-73
2021/08/04 06:49:44;;;;;;;6.65;1.52;;;22.80;96.70;;;;;;4907869;29;20048;-72
2021/08/04 06:52:12;;;;;;;4.32;1.90;;;23.00;96.70;;;;;;4908768;29;20052;-72
2021/08/04 06:54:42;;;;;;;5.57;1.75;;;23.00;96.70;;;;;;4907444;29;20058;-73
2021/08/04 06:57:11;;;;;;;6.07;2.25;;;23.10;96.70;;;;;;4908855;29;20935;-73
2021/08/04 06:59:39;;;;;;;6.78;1.77;;;23.10;96.70;;;;;;4921991;29;20044;-72
2021/08/04 07:02:07;;;;;;;4.65;1.52;;;23.10;96.70;;;;;;4922489;28;20111;-72
2021/08/04 07:04:36;;;;;;;6.30;1.40;;;23.10;96.70;;;;;;4908376;29;20044;-72
2021/08/04 07:07:05;;;;;;;5.05;1.27;;;23.30;96.70;;;;;;4908450;29;20447;-72
2021/08/04 07:09:34;;;;;;;3.88;1.27;;;23.30;96.70;;;;;;4907321;29;20067;-71
2021/08/04 07:12:05;;;;;;;6.03;1.52;;;23.50;96.70;;;;;;4931300;29;20463;-72
2021/08/04 07:14:34;;;;;;;3.90;1.60;;;23.60;96.70;;;;;;4906030;29;20044;-73
2021/08/04 07:17:03;;;;;;;5.10;1.50;;;23.60;96.70;;;;;;4907926;29;20040;-73
2021/08/04 07:19:32;;;;;;;3.40;1.50;;;23.60;96.70;;;;;;4906685;29;20382;-73
2021/08/04 07:22:02;;;;;;;4.40;1.42;;;23.80;96.70;;;;;;4905800;29;20040;-73
2021/08/04 07:24:36;;;;;;;4.35;1.63;;;23.80;96.70;;;;;;4895756;29;20044;-73
2021/08/04 07:27:08;;;;;;;3.78;1.40;;;24.00;96.70;;;;;;4907503;29;20047;-72
2021/08/04 07:29:37;;;;;;;5.10;1.45;;;24.00;96.70;;;;;;4907219;29;20156;-72
2021/08/04 07:32:06;;;;;;;3.55;1.60;;;24.00;96.70;;;;;;4907639;29;20069;-72
2021/08/04 07:34:35;;;;;;;4.55;1.30;;;24.10;96.70;;;;;;4889913;29;20067;-75
2021/08/04 07:37:04;;;;;;;4.55;1.30;;;24.20;96.70;;;;;;4906749;29;20052;-74
2021/08/04 07:39:32;;;;;;;4.93;1.60;;;24.40;96.70;;;;;;4908464;29;20547;-74
2021/08/04 07:42:01;;;;;;;6.63;1.50;;;24.50;96.70;;;;;;4904650;29;20056;-71
2021/08/04 07:44:30;;;;;;;5.70;1.10;;;24.60;96.70;;;;;;4901074;29;20048;-71
2021/08/04 07:46:59;;;;;;;2.13;0.98;;;24.80;96.70;;;;;;4920119;29;20048;-72
2021/08/04 07:49:27;;;;;;;4.50;1.13;;;24.80;96.70;;;;;;4905421;29;20050;-72
2021/08/04 07:51:56;;;;;;;4.07;1.45;;;24.80;96.70;;;;;;4907735;29;20107;-73
2021/08/04 07:54:24;;;;;;;2.45;1.20;;;24.90;96.70;;;;;;4936785;28;20040;-72
2021/08/04 07:56:52;;;;;;;3.13;1.10;;;24.90;96.70;;;;;;4905584;29;20411;-72
2021/08/04 07:59:21;;;;;;;4.40;1.48;;;25.00;96.70;;;;;;4904496;29;20043;-71
2021/08/04 08:01:51;;;;;;;6.30;1.10;;;25.10;96.70;;;;;;4906999;29;20724;-71
2021/08/04 08:04:19;;;;;;;3.38;1.10;;;25.30;96.70;;;;;;4907563;29;20074;-71
2021/08/04 08:06:49;;;;;;;3.22;1.40;;;25.40;96.70;;;;;;4905655;29;20047;-71
2021/08/04 08:09:21;;;;;;;3.80;1.75;;;25.60;96.70;;;;;;4905777;29;20056;-71
2021/08/04 08:11:50;;;;;;;3.13;1.77;;;25.60;96.70;;;;;;4906835;29;20048;-71
2021/08/04 08:14:19;;;;;;;2.58;1.20;;;25.70;96.70;;;;;;4906544;29;20092;-71
2021/08/04 08:16:47;;;;;;;4.53;1.23;;;25.70;96.70;;;;;;4904771;29;20051;-71
2021/08/04 08:19:17;;;;;;;6.38;1.65;;;25.70;96.70;;;;;;4907363;29;20052;-71
2021/08/04 08:21:46;;;;;;;7.18;1.20;;;25.80;96.70;;;;;;4906696;29;20052;-71
2021/08/04 08:24:15;;;;;;;2.42;1.00;;;26.00;96.70;;;;;;4921486;29;20506;-72
2021/08/04 08:26:43;;;;;;;2.25;1.23;;;26.20;96.70;;;;;;4918876;28;20210;-73
2021/08/04 08:29:12;;;;;;;3.63;1.10;;;26.30;96.70;;;;;;4920590;29;20044;-72
2021/08/04 08:31:41;;;;;;;4.45;1.83;;;26.30;96.70;;;;;;4908742;29;20040;-73
2021/08/04 08:34:10;;;;;;;3.85;1.10;;;26.30;96.70;;;;;;4904443;29;20112;-74
2021/08/04 08:36:40;;;;;;;3.00;1.00;;;26.20;96.70;;;;;;4922463;29;20108;-74
2021/08/04 08:39:10;;;;;;;2.13;1.08;;;26.20;96.70;;;;;;4906229;29;20412;-73
2021/08/04 08:41:38;;;;;;;2.58;1.10;;;26.00;96.70;;;;;;4907528;29;20131;-74
2021/08/04 08:44:07;;;;;;;3.05;1.23;;;26.00;96.70;;;;;;4910216;29;20059;-73
2021/08/04 08:46:35;;;;;;;4.43;1.02;;;26.10;96.70;;;;;;4904570;29;20497;-76
2021/08/04 08:49:04;;;;;;;2.78;0.98;;;26.30;96.70;;;;;;4906323;29;20056;-75
2021/08/04 08:51:33;;;;;;;2.97;1.10;;;26.40;96.70;;;;;;4924325;29;20055;-74
2021/08/04 08:54:02;;;;;;;4.65;1.30;;;26.50;96.70;;;;;;4909142;29;20703;-75
2021/08/04 08:56:31;;;;;;;2.13;1.02;;;26.70;96.70;;;;;;4905891;29;20079;-73
2021/08/04 08:58:59;;;;;;;3.38;0.93;;;26.90;96.00;;;;;;4921552;29;20051;-73
2021/08/04 09:01:36;;;;;;;4.57;1.08;;;27.00;95.00;;;;;;4906656;29;20040;-72
2021/08/04 09:04:09;;;;;;;3.63;1.45;;;26.90;95.10;;;;;;4898732;29;20044;-74
2021/08/04 09:06:47;;;;;;;2.47;1.00;;;27.00;95.60;;;;;;4904849;29;20566;-73
2021/08/04 09:09:20;;;;;;;4.85;1.48;;;27.20;95.20;;;;;;4899891;29;20052;-73
2021/08/04 09:11:52;;;;;;;4.55;1.17;;;27.40;94.60;;;;;;4919119;29;20641;-73
2021/08/04 09:14:27;;;;;;;3.83;1.30;;;27.50;93.70;;;;;;4905286;29;20044;-72
2021/08/04 09:17:05;;;;;;;4.30;1.17;;;27.50;92.10;;;;;;4910640;29;20400;-71
2021/08/04 09:19:35;;;;;;;2.85;1.30;;;27.40;92.60;;;;;;4908173;29;20059;-71
2021/08/04 09:22:09;;;;;;;4.75;1.05;;;27.40;94.10;;;;;;4909948;29;20091;-71
2021/08/04 09:25:00;;;;;;;2.65;1.00;;;27.50;93.10;;;;;;4922016;28;20059;-71
2021/08/04 09:27:56;;;;;;;2.58;1.10;;;27.60;93.10;;;;;;4912447;28;20044;-71
2021/08/04 09:30:28;;;;;;;2.20;0.98;;;27.80;91.40;;;;;;4894393;29;20158;-71
2021/08/04 09:33:12;;;;;;;6.03;1.00;;;28.00;92.10;;;;;;4908002;29;20510;-71
2021/08/04 09:35:46;;;;;;;2.90;0.98;;;28.00;91.20;;;;;;4924779;29;20504;-71
2021/08/04 09:38:15;;;;;;;1.92;0.95;;;28.00;89.60;;;;;;4910793;29;20550;-71
2021/08/04 09:41:08;;;;;;;3.53;1.00;;;28.00;90.00;;;;;;4907066;29;20044;-71
2021/08/04 09:43:36;;;;;;;2.47;1.20;;;28.10;91.40;;;;;;4910438;29;20411;-71
2021/08/04 09:46:05;;;;;;;3.25;1.05;;;28.10;90.60;;;;;;4908827;29;20044;-71
2021/08/04 09:48:34;;;;;;;2.08;1.27;;;28.30;91.40;;;;;;4907542;29;20130;-71
2021/08/04 09:51:03;;;;;;;2.25;1.33;;;28.30;90.90;;;;;;4908359;29;20075;-71
2021/08/04 09:53:34;;;;;;;5.40;1.08;;;28.40;90.70;;;;;;4909732;29;20059;-71
2021/08/04 09:56:10;;;;;;;2.97;1.00;;;28.40;90.80;;;;;;4909914;29;20699;-71
2021/08/04 09:58:41;;;;;;;2.00;0.85;;;28.40;89.60;;;;;;4909610;29;20052;-71
2021/08/04 10:01:12;;;;;;;2.67;1.02;;;28.40;89.10;;;;;;4910596;29;20052;-71
2021/08/04 10:04:00;;;;;;;10.45;1.80;;;28.50;88.70;;;;;;4907161;29;20059;-71
2021/08/04 10:06:33;;;;;;;4.25;1.23;;;28.40;88.70;;;;;;4935693;28;20506;-71
2021/08/04 10:09:02;;;;;;;3.47;1.38;;;28.30;89.20;;;;;;4908080;29;20068;-71
2021/08/04 10:11:32;;;;;;;5.60;1.45;;;28.20;89.10;;;;;;4903155;29;20497;-71
2021/08/04 10:14:00;;;;;;;3.90;1.33;;;28.10;88.30;;;;;;4909702;29;20074;-72
2021/08/04 10:16:31;;;;;;;2.30;1.00;;;28.20;89.90;;;;;;4906848;29;20493;-71
2021/08/04 10:19:01;;;;;;;4.00;1.08;;;28.20;89.70;;;;;;4907371;29;20052;-71
2021/08/04 10:21:31;;;;;;;6.00;1.20;;;28.30;88.90;;;;;;4907418;29;20040;-72
2021/08/04 10:24:01;;;;;;;3.47;0.90;;;28.50;88.00;;;;;;4907099;29;20562;-72
2021/08/04 10:26:31;;;;;;;4.50;1.25;;;28.70;88.30;;;;;;4908212;29;20048;-72
2021/08/04 10:29:00;;;;;;;8.68;1.40;;;28.70;87.40;;;;;;4907532;29;20040;-71
2021/08/04 10:31:29;;;;;;;3.90;1.05;;;28.70;88.20;;;;;;4899932;29;20586;-71
2021/08/04 10:34:01;;;;;;;4.07;1.00;;;28.70;87.30;;;;;;4908850;29;20399;-72
2021/08/04 10:36:32;;;;;;;4.30;1.23;;;28.70;87.00;;;;;;4922350;28;20052;-72
2021/08/04 10:39:05;;;;;;;3.67;1.02;;;28.80;86.10;;;;;;4916854;29;20048;-72
2021/08/04 10:41:35;;;;;;;3.15;0.85;;;28.80;84.00;;;;;;4938234;28;20475;-72
2021/08/04 10:44:05;;;;;;;5.70;1.20;;;28.80;84.70;;;;;;4939523;28;20138;-71
2021/08/04 10:46:42;;;;;;;3.42;1.10;;;28.90;85.00;;;;;;4906625;29;20044;-72
2021/08/04 10:49:25;;;;;;;5.55;1.15;;;29.00;84.50;;;;;;4907997;29;20144;-72
2021/08/04 10:52:15;;;;;;;1.60;0.80;;;29.20;84.40;;;;;;4907499;29;20422;-71
2021/08/04 10:55:04;;;;;;;3.72;0.73;;;29.20;83.80;;;;;;4908746;29;20131;-71
2021/08/04 10:58:16;;;;;;;2.35;1.00;;;29.10;82.70;;;;;;4906024;29;20589;-71
2021/08/04 11:00:46;;;;;;;1.98;0.80;;;29.10;83.50;;;;;;4907202;29;20059;-71
2021/08/04 11:03:53;;;;;;;1.70;0.93;;;29.20;82.70;;;;;;4908126;29;20047;-72
2021/08/04 11:06:21;;;;;;;3.92;1.17;;;29.20;82.40;;;;;;4897948;29;20197;-71
2021/08/04 11:09:23;;;;;;;2.60;0.90;;;29.30;83.30;;;;;;4905609;29;20461;-72
2021/08/04 11:11:54;;;;;;;1.63;0.85;;;29.30;82.60;;;;;;4907666;29;20055;-72
2021/08/04 11:14:42;;;;;;;5.50;0.90;;;29.40;82.10;;;;;;4906083;29;20060;-71
2021/08/04 11:17:12;;;;;;;3.53;1.10;;;29.50;82.20;;;;;;4936503;28;20475;-72
2021/08/04 11:20:10;;;;;;;2.58;0.90;;;29.60;82.30;;;;;;4905852;29;20083;-71
2021/08/04 11:22:42;;;;;;;;;;;29.70;81.80;;;;;;4938083;28;20130;-71
2021/08/04 11:25:13;;;;;;;2.72;1.10;;;30.00;82.10;;;;;;4924435;28;19934;-71
2021/08/04 11:28:03;;;;;;;1.85;1.00;;;30.20;80.50;;;;;;4909180;29;20047;-71
2021/08/04 11:30:35;;;;;;;2.13;1.10;;;30.10;80.30;;;;;;4907178;29;20039;-71
2021/08/04 11:33:29;;;;;;;3.15;1.00;;;30.10;81.20;;;;;;4906836;29;20044;-71
2021/08/04 11:36:22;;;;;;;2.03;1.05;;;30.00;81.10;;;;;;4905796;29;20510;-71
2021/08/04 11:38:58;;;;;;;1.90;0.82;;;29.90;81.50;;;;;;4900888;29;20051;-71
2021/08/04 11:41:40;;;;;;;3.08;1.30;;;30.10;82.30;;;;;;4922393;28;20044;-72
2021/08/04 11:44:19;;;;;;;2.55;0.90;;;30.20;80.90;;;;;;4908092;29;20048;-71
2021/08/04 11:46:52;;;;;;;2.90;0.90;;;30.10;80.60;;;;;;4906755;29;20499;-71
2021/08/04 11:49:25;;;;;;;2.60;1.00;;;30.00;81.10;;;;;;4918131;29;20498;-72
2021/08/04 11:51:55;;;;;;;4.75;1.10;;;30.00;81.10;;;;;;4922426;28;20565;-71
2021/08/04 11:54:32;;;;;;;2.38;1.02;;;30.20;79.70;;;;;;4907025;29;20119;-71
2021/08/04 11:57:01;;;;;;;3.90;1.33;;;30.50;80.10;;;;;;4902786;29;20490;-71
2021/08/04 11:59:30;;;;;;;3.78;0.95;;;30.80;79.30;;;;;;4907767;29;20067;-71
2021/08/04 12:02:01;;;;;;;3.33;0.93;;;30.90;78.70;;;;;;4908358;29;20044;-71
2021/08/04 12:04:31;;;;;;;1.55;0.90;;;30.70;79.10;;;;;;4908775;29;20063;-71
2021/08/04 12:07:02;;;;;;;2.80;1.23;;;30.80;79.00;;;;;;4910665;29;20044;-71
2021/08/04 12:09:32;;;;;;;2.35;1.20;;;30.80;79.00;;;;;;4907298;29;20569;-71
2021/08/04 12:12:01;;;;;;;3.28;1.17;;;30.70;79.70;;;;;;4912115;29;21681;-72
2021/08/04 12:14:32;;;;;;;3.00;1.20;;;30.70;79.90;;;;;;4910742;29;20478;-72
2021/08/04 12:17:24;;;;;;;3.67;1.17;;;30.70;79.20;;;;;;4909166;29;20586;-71
2021/08/04 12:19:55;;;;;;;4.85;0.90;;;30.70;78.60;;;;;;4925435;28;20051;-71
2021/08/04 12:22:26;;;;;;;3.25;1.20;;;30.60;79.10;;;;;;4911805;29;20036;-71
2021/08/04 12:24:56;;;;;;;2.45;0.90;;;30.50;79.30;;;;;;4909600;29;20175;-71
2021/08/04 12:27:34;;;;;;;2.33;1.30;;;30.60;79.40;;;;;;4923640;29;20044;-71
2021/08/04 12:30:12;;;;;;;3.22;1.13;;;30.70;79.40;;;;;;4910904;29;20396;-71
2021/08/04 12:32:55;;;;;;;3.97;1.45;;;30.70;79.00;;;;;;4911703;29;20514;-71
2021/08/04 12:35:26;;;;;;;1.52;1.00;;;30.60;79.10;;;;;;4911720;29;20044;-71
2021/08/04 12:37:55;;;;;;;2.13;1.25;;;30.60;79.70;;;;;;4906660;29;20050;-72
2021/08/04 12:40:24;;;;;;;1.95;1.15;;;30.50;79.90;;;;;;4910602;29;20119;-71
2021/08/04 12:42:55;;;;;;;3.15;1.23;;;30.50;79.30;;;;;;4905239;29;20060;-71
2021/08/04 12:45:25;;;;;;;3.08;1.00;;;30.60;79.90;;;;;;4908645;29;20058;-71
2021/08/04 12:47:58;;;;;;;3.75;1.30;;;30.80;79.10;;;;;;4909755;29;20056;-71
2021/08/04 12:50:28;;;;;;;5.50;1.65;;;30.90;79.40;;;;;;4925154;28;20075;-71
2021/08/04 12:52:56;;;;;;;3.05;1.17;;;30.90;78.60;;;;;;4912307;29;20095;-71
2021/08/04 12:55:25;;;;;;;3.05;1.10;;;30.90;79.10;;;;;;4910787;29;20079;-71
2021/08/04 12:58:04;;;;;;;1.67;1.10;;;30.90;79.50;;;;;;4906478;29;20099;-71
2021/08/04 13:00:34;;;;;;;3.90;1.30;;;31.10;79.50;;;;;;4909023;29;20054;-71
2021/08/04 13:03:06;;;;;;;1.50;1.20;;;31.10;79.30;;;;;;4911790;29;20482;-72
2021/08/04 13:05:46;;;;;;;1.95;1.05;;;31.10;78.60;;;;;;4920221;28;20598;-71
2021/08/04 13:08:31;;;;;;;2.90;1.38;;;31.00;78.70;;;;;;4905042;29;20044;-71
2021/08/04 13:11:02;;;;;;;2.38;1.08;;;31.00;78.50;;;;;;4910939;29;20070;-71
2021/08/04 13:13:57;;;;;;;2.95;1.10;;;31.10;78.80;;;;;;4911354;29;20067;-72
2021/08/04 13:16:30;;;;;;;4.57;1.10;;;31.30;77.70;;;;;;4907959;29;20470;-71